Flight Track Log - Related Links

Times and Time Zones

All times are in EDT time to prevent confusion due to time zone crossing. See the SWA606 flight status page for this flight to view local times or setup timezone preferences in your user account.

Time Position Orientation Groundspeed Altitude Reporting Facility
EDT Latitude Longitude Course Direction KTS MPH feet Rate Location/Type
Tue 12:30:56 PM 41.4172 -81.8406 11° North 150 173 1,700  Level Cleveland Center
Tue 12:31:20 PM 41.4367 -81.8353 12° North 171 197 2,400 1,615 Climbing Cleveland Center
Tue 12:31:48 PM 41.4553 -81.8375 355° North 192 221 3,100 2,133 Climbing Cleveland Center
Tue 12:32:50 PM 41.4944 -81.8750 324° Northwest 199 229 5,600 2,806 Climbing Cleveland Center
Tue 12:33:52 PM 41.4714 -81.9581 250° West 237 273 8,900 2,780 Climbing Cleveland Center
Tue 12:34:53 PM 41.4447 -82.0533 250° West 276 318 11,300 3,073 Climbing Cleveland Center
Tue 12:35:55 PM 41.4058 -82.1858 249° West 322 371 15,200 3,484 Climbing Cleveland Center
Tue 12:36:57 PM 41.3708 -82.3078 249° West 345 397 18,500 3,097 Climbing Cleveland Center
Tue 12:37:59 PM 41.3347 -82.4333 249° West 358 412 21,600 2,903 Climbing Cleveland Center
Tue 12:39:01 PM 41.3036 -82.5614 252° West 360 414 24,500 2,390 Climbing Cleveland Center
Tue 12:40:02 PM 41.2908 -82.6989 263° West 369 425 26,500 2,390 Climbing Cleveland Center
Tue 12:41:04 PM 41.3033 -82.8369 277° West 371 427 29,400 1,694 Climbing Cleveland Center
Tue 12:42:06 PM 41.3147 -82.9722 276° West 368 423 30,000 290 Climbing Cleveland Center
Tue 12:43:08 PM 41.3272 -83.1086 277° West 368 423 30,000  Level Cleveland Center
Tue 12:44:10 PM 41.3406 -83.2692 276° West 371 427 30,000  Level Cleveland Center
Tue 12:45:12 PM 41.3528 -83.4081 277° West 374 430 30,000  Level Cleveland Center
Tue 12:46:13 PM 41.3644 -83.5472 276° West 376 433 30,000  Level Cleveland Center
Tue 12:47:15 PM 41.3756 -83.6881 276° West 379 436 30,000  Level Cleveland Center
Tue 12:48:17 PM 41.3872 -83.8303 276° West 381 438 30,000  Level Cleveland Center
Tue 12:49:19 PM 41.3986 -83.9714 276° West 384 442 30,000  Level Cleveland Center
Tue 12:50:21 PM 41.4092 -84.1136 276° West 384 442 30,000  Level Cleveland Center
Tue 12:51:23 PM 41.4217 -84.2758 276° West 384 442 30,000  Level Cleveland Center
Tue 12:52:24 PM 41.4322 -84.4158 276° West 383 441 30,000 -1,073 Level Cleveland Center
Tue 12:53:26 PM 41.4431 -84.5533 276° West 379 436 27,800 -2,274 Descending Cleveland Center
Tue 12:54:28 PM 41.4528 -84.6881 276° West 370 426 25,300 -1,645 Descending Cleveland Center
Tue 12:55:30 PM 41.4625 -84.8217 276° West 363 418 24,400 -684 Descending Cleveland Center
Tue 12:56:22 PM 41.4717 -84.9556 275° West 365 420 24,000 -211 Descending Chicago Center
Tue 12:57:24 PM 41.4817 -85.0914 276° West 365 420 24,000 -97 Level Chicago Center
Tue 12:58:26 PM 41.4908 -85.2289 275° West 368 423 23,800 -581 Descending Chicago Center
Tue 12:59:28 PM 41.4983 -85.3644 274° West 367 422 22,800 -1,016 Descending Chicago Center
Tue 01:00:30 PM 41.5089 -85.5003 276° West 364 419 21,700 -1,008 Descending Chicago Center
Tue 01:01:33 PM 41.5161 -85.6369 274° West 362 417 20,700 -960 Descending Chicago Center
Tue 01:02:35 PM 41.5186 -85.7714 271° West 362 417 19,700 -968 Descending Chicago Center
Tue 01:03:37 PM 41.5211 -85.9050 271° West 360 414 18,700 -1,161 Descending Chicago Center
Tue 01:04:39 PM 41.5242 -86.0617 272° West 354 407 17,300 -1,887 Descending Chicago Center
Tue 01:05:41 PM 41.5239 -86.1911 270° West 353 406 14,800 -2,390 Descending Chicago Center
Tue 01:06:42 PM 41.5228 -86.3167 269° West 341 392 12,400 -1,902 Descending Chicago Center
Tue 01:07:44 PM 41.5231 -86.4439 270° West 341 392 10,900 -1,161 Descending Chicago Center
Tue 01:08:46 PM 41.5208 -86.5717 269° West 343 395 10,000 -435 Descending Chicago Center
Tue 01:09:48 PM 41.5211 -86.7178 270° West 347 399 10,000 -48 Level Chicago Center
Tue 01:10:50 PM 41.5219 -86.8467 271° West 306 352 9,900 -435 Descending Chicago Center
Tue 01:11:52 PM 41.5197 -86.9475 268° West 272 313 9,100 -1,210 Descending Chicago Center
Tue 01:12:54 PM 41.5183 -87.0539 269° West 270 311 7,400 -1,500 Descending Chicago Center
Tue 01:13:56 PM 41.5175 -87.1500 269° West 261 300 6,000 -968 Descending Chicago Center
Tue 01:14:58 PM 41.5411 -87.2400 289° West 240 276 5,400 -726 Descending Chicago Center
Tue 01:16:00 PM 41.5656 -87.3231 291° West 240 276 4,500 -677 Descending Chicago Center
Tue 01:17:02 PM 41.5894 -87.4081 291° West 245 282 4,000 -240 Descending Chicago Center
Tue 01:18:05 PM 41.6156 -87.4972 291° West 242 278 4,000  Level Chicago Center
Tue 01:19:06 PM 41.6539 -87.5689 306° West 241 277 4,000 -537 Level Chicago Center
Tue 01:20:08 PM 41.6997 -87.6336 313° West 223 257 2,900 -968 Descending Chicago Center
Tue 01:21:10 PM 41.7339 -87.6822 313° West 171 197 2,000 -864 Descending Chicago Center
Tue 01:22:13 PM 41.7619 -87.7214 314° West 137 158 1,100 -624 Descending Chicago Center
Tue 01:23:15 PM 41.7836 -87.7525 313° West 135 155 700 -387 Descending Chicago Center

Login

Don't have an account? Register now (free) for customized features, flight alerts, and more!